Time;durP1;ratioP1;P1;durP2;ratioP2;P2;SDS_P1;SDS_P2;PMS_P1;PMS_P2;Temp;Humidity;BMP_temperature;BMP_pressure;BME280_temperature;BME280_humidity;BME280_pressure;Samples;Min_cycle;Max_cycle;Signal;HPM_P1;HPM_P2
2022/07/13 00:00:42;;;;;;;12.68;1.30;;;;;;;21.37;67.32;101107.25;4978450;28;102157;-67
2022/07/13 00:03:08;;;;;;;2.03;1.10;;;;;;;21.37;67.31;101110.00;4980123;28;102265;-67
2022/07/13 00:05:35;;;;;;;1.05;0.95;;;;;;;21.37;67.11;101115.53;4978321;28;103993;-67
2022/07/13 00:08:01;;;;;;;1.25;0.85;;;;;;;21.36;67.10;101109.19;4979439;28;101976;-67
2022/07/13 00:10:30;;;;;;;0.88;0.80;;;;;;;21.37;67.24;101110.00;4997355;28;102005;-67
2022/07/13 00:12:57;;;;;;;0.87;0.80;;;;;;;21.34;67.15;101109.50;4999983;28;102563;-67
2022/07/13 00:15:24;;;;;;;1.00;0.90;;;;;;;21.36;67.20;101106.44;4979865;28;104091;-66
2022/07/13 00:17:50;;;;;;;1.35;0.90;;;;;;;21.37;67.08;101107.25;4977735;28;102207;-67
2022/07/13 00:20:17;;;;;;;0.80;0.80;;;;;;;21.37;67.00;101101.69;4979077;28;102300;-66
2022/07/13 00:22:44;;;;;;;0.90;0.88;;;;;;;21.37;66.99;101112.78;4980114;28;102192;-66
2022/07/13 00:25:10;;;;;;;2.13;0.88;;;;;;;21.37;66.94;101108.03;4978132;28;104011;-66
2022/07/13 00:27:38;;;;;;;2.97;0.93;;;;;;;21.35;67.21;101100.09;4979256;28;102661;-66
2022/07/13 00:30:06;;;;;;;1.53;0.67;;;;;;;21.37;67.17;101110.00;4977112;28;103132;-66
2022/07/13 00:32:32;;;;;;;0.90;0.90;;;;;;;21.37;67.11;101096.16;4980123;28;102825;-67
2022/07/13 00:34:59;;;;;;;1.08;0.73;;;;;;;21.35;67.28;101099.28;4977211;28;103901;-67
2022/07/13 00:37:25;;;;;;;2.75;0.82;;;;;;;21.36;67.06;101098.13;4979266;28;101877;-66
2022/07/13 00:39:52;;;;;;;1.35;1.17;;;;;;;21.36;67.12;101095.34;4978723;28;102398;-68
2022/07/13 00:42:18;;;;;;;1.42;0.80;;;;;;;21.35;67.06;101089.00;4979552;28;102433;-67
2022/07/13 00:44:46;;;;;;;1.00;0.70;;;;;;;21.35;67.05;101091.78;4976802;28;103904;-67
2022/07/13 00:47:13;;;;;;;1.00;0.90;;;;;;;21.33;66.92;101091.28;4978913;28;102533;-66
2022/07/13 00:49:40;;;;;;;1.77;0.90;;;;;;;21.34;66.94;101087.38;4978821;28;102278;-67
2022/07/13 00:52:07;;;;;;;1.17;0.80;;;;;;;21.34;66.77;101076.28;4960116;28;102553;-67
2022/07/13 00:54:36;;;;;;;0.80;0.80;;;;;;;21.35;66.84;101077.94;4977002;28;103856;-67
2022/07/13 00:57:07;;;;;;;2.05;0.98;;;;;;;21.34;66.93;101079.06;4977569;28;102137;-67
2022/07/13 00:59:36;;;;;;;1.27;0.80;;;;;;;21.36;66.70;101081.50;4973662;28;102089;-66
2022/07/13 01:02:04;;;;;;;1.65;1.02;;;;;;;21.35;67.04;101072.41;4979368;28;102440;-68
2022/07/13 01:04:31;;;;;;;1.00;0.90;;;;;;;21.35;66.94;101071.59;4977755;28;104046;-66
2022/07/13 01:06:58;;;;;;;1.05;0.80;;;;;;;21.35;66.93;101069.63;4959780;28;102278;-67
2022/07/13 01:09:25;;;;;;;1.02;0.90;;;;;;;21.34;67.12;101070.75;4984042;28;102333;-67
2022/07/13 01:11:53;;;;;;;0.90;0.80;;;;;;;21.33;66.92;101062.78;4988854;28;102136;-67
2022/07/13 01:14:21;;;;;;;0.87;0.87;;;;;;;21.34;66.98;101068.00;4977400;28;104024;-66
2022/07/13 01:16:49;;;;;;;1.85;0.85;;;;;;;21.32;66.74;101061.97;4978297;28;102423;-66
2022/07/13 01:19:21;;;;;;;1.50;0.90;;;;;;;21.33;66.86;101060.84;4976945;28;102313;-66
2022/07/13 01:21:54;;;;;;;1.02;0.80;;;;;;;21.32;66.74;101056.44;4976983;28;102184;-67
2022/07/13 01:24:23;;;;;;;1.65;0.88;;;;;;;21.33;66.63;101058.06;4977296;28;107905;-67
2022/07/13 01:26:50;;;;;;;0.88;0.85;;;;;;;21.32;66.65;101056.44;4977067;28;102352;-67
2022/07/13 01:29:16;;;;;;;2.35;0.90;;;;;;;21.33;66.49;101055.31;4976940;28;102475;-68
2022/07/13 01:31:43;;;;;;;1.10;1.00;;;;;;;21.35;66.45;101050.25;4973680;28;102080;-66
2022/07/13 01:34:09;;;;;;;1.40;0.90;;;;;;;21.33;66.45;101052.53;4960022;28;103928;-66
2022/07/13 01:36:37;;;;;;;2.30;0.98;;;;;;;21.32;66.72;101050.88;4977896;28;102552;-67
2022/07/13 01:39:05;;;;;;;1.70;1.05;;;;;;;21.32;66.67;101045.34;4977264;28;102060;-67
2022/07/13 01:41:33;;;;;;;2.78;0.98;;;;;;;21.33;66.74;101043.41;4978055;28;102119;-66
2022/07/13 01:44:00;;;;;;;1.80;1.02;;;;;;;21.32;66.90;101045.34;4977121;28;103893;-66
2022/07/13 01:46:28;;;;;;;0.73;0.73;;;;;;;21.31;66.65;101049.28;4978238;28;102087;-67
2022/07/13 01:48:55;;;;;;;0.80;0.80;;;;;;;21.32;66.49;101047.31;4977307;28;102049;-67
2022/07/13 01:51:22;;;;;;;0.73;0.70;;;;;;;21.33;66.57;101038.69;4976140;28;102325;-66
2022/07/13 01:53:48;;;;;;;1.33;0.90;;;;;;;21.32;66.40;101042.59;4977158;28;103925;-67
2022/07/13 01:56:15;;;;;;;1.38;0.90;;;;;;;21.32;66.34;101039.81;4964139;28;102251;-66
2022/07/13 01:58:45;;;;;;;1.38;0.90;;;;;;;21.30;66.46;101036.56;4957318;28;102362;-66
2022/07/13 02:01:11;;;;;;;2.17;0.90;;;;;;;21.32;66.37;101037.03;4967223;28;102448;-67
2022/07/13 02:03:38;;;;;;;1.48;0.95;;;;;;;21.31;66.52;101038.19;4976914;28;103983;-67
2022/07/13 02:06:05;;;;;;;0.88;0.80;;;;;;;21.31;66.39;101043.75;4977341;28;102141;-66
2022/07/13 02:08:33;;;;;;;2.67;0.95;;;;;;;21.32;66.54;101039.81;4978922;28;102266;-67
2022/07/13 02:11:00;;;;;;;1.25;0.90;;;;;;;21.31;66.63;101037.38;4984883;28;102238;-67
2022/07/13 02:13:27;;;;;;;0.88;0.88;;;;;;;21.31;66.46;101032.66;4976213;28;103893;-66
2022/07/13 02:15:55;;;;;;;0.90;0.80;;;;;;;21.31;66.42;101043.75;4977706;28;102094;-66
2022/07/13 02:18:22;;;;;;;2.40;1.02;;;;;;;21.31;66.50;101034.59;4976915;28;102156;-66
2022/07/13 02:20:48;;;;;;;1.70;0.82;;;;;;;21.30;66.59;101042.09;4977338;28;103498;-66
2022/07/13 02:23:15;;;;;;;1.08;0.95;;;;;;;21.28;66.43;101044.41;4976391;28;104173;-67
2022/07/13 02:25:42;;;;;;;1.13;0.80;;;;;;;21.29;66.61;101032.19;4977149;28;101978;-66
2022/07/13 02:28:09;;;;;;;1.20;0.82;;;;;;;21.31;66.51;101040.97;4976326;28;102130;-67
2022/07/13 02:30:36;;;;;;;1.10;0.88;;;;;;;21.32;66.24;101045.34;4977890;28;102639;-66
2022/07/13 02:33:04;;;;;;;0.70;0.70;;;;;;;21.32;66.28;101030.72;4975927;28;104014;-67
2022/07/13 02:35:31;;;;;;;1.80;0.90;;;;;;;21.30;66.35;101024.69;4976708;28;102207;-68
2022/07/13 02:37:58;;;;;;;2.47;0.70;;;;;;;21.30;66.44;101035.75;4976904;28;102202;-66
2022/07/13 02:40:24;;;;;;;1.38;0.93;;;;;;;21.29;66.45;101032.19;4976815;28;102241;-66
2022/07/13 02:42:51;;;;;;;1.42;0.90;;;;;;;21.29;66.39;101034.94;4976555;28;103926;-66
2022/07/13 02:45:18;;;;;;;1.10;1.00;;;;;;;21.28;66.26;101022.25;4976896;28;102165;-66
2022/07/13 02:47:44;;;;;;;1.58;0.90;;;;;;;21.30;66.22;101021.91;4976684;28;102329;-67
2022/07/13 02:50:12;;;;;;;3.22;1.00;;;;;;;21.30;66.39;101031.03;4976365;28;102448;-66
2022/07/13 02:52:39;;;;;;;1.38;0.88;;;;;;;21.30;66.21;101025.50;4975898;28;103881;-67
2022/07/13 02:55:06;;;;;;;0.90;0.75;;;;;;;21.30;66.19;101016.38;4995386;28;101993;-67
2022/07/13 02:57:33;;;;;;;1.50;0.65;;;;;;;21.29;66.32;101023.88;4996510;28;102315;-67
2022/07/13 03:00:00;;;;;;;2.55;1.20;;;;;;;21.27;66.43;101023.38;4995879;28;102132;-66
2022/07/13 03:02:27;;;;;;;1.25;0.90;;;;;;;21.28;66.35;101016.72;4976384;28;103882;-66
2022/07/13 03:04:53;;;;;;;2.42;1.00;;;;;;;21.29;66.10;101012.81;4975905;28;102012;-67
2022/07/13 03:07:21;;;;;;;1.88;0.80;;;;;;;21.29;66.12;101012.00;4975934;28;102022;-66
2022/07/13 03:09:52;;;;;;;0.90;0.70;;;;;;;21.28;65.88;101004.84;4988130;28;102328;-66
2022/07/13 03:12:20;;;;;;;0.70;0.70;;;;;;;21.29;66.03;101015.56;4976031;28;104186;-66
2022/07/13 03:14:47;;;;;;;1.48;0.93;;;;;;;21.28;65.97;101011.19;4976876;28;102201;-67
2022/07/13 03:17:13;;;;;;;1.17;1.08;;;;;;;21.27;66.13;101004.00;4976120;28;102001;-66
2022/07/13 03:19:41;;;;;;;2.15;1.00;;;;;;;21.28;66.16;101004.84;4976661;28;101994;-66
2022/07/13 03:22:07;;;;;;;1.00;0.90;;;;;;;21.28;65.83;101016.72;4978800;28;106423;-67
2022/07/13 03:24:35;;;;;;;1.02;0.95;;;;;;;21.30;65.88;101008.88;4978674;28;101946;-66
2022/07/13 03:27:02;;;;;;;2.72;1.20;;;;;;;21.29;65.84;101007.25;4969977;28;102262;-66
2022/07/13 03:29:29;;;;;;;1.15;0.95;;;;;;;21.28;65.78;101000.13;4978953;28;102219;-67
2022/07/13 03:31:55;;;;;;;2.30;1.17;;;;;;;21.29;65.80;101007.25;4978584;28;104065;-66
2022/07/13 03:34:22;;;;;;;0.93;0.90;;;;;;;21.30;65.83;101002.53;4980275;28;102011;-66
2022/07/13 03:36:48;;;;;;;2.38;1.00;;;;;;;21.30;65.79;100997.81;4978382;28;102283;-66
2022/07/13 03:39:15;;;;;;;1.20;1.00;;;;;;;21.28;65.96;101005.66;4981082;28;102496;-67
2022/07/13 03:41:43;;;;;;;2.60;0.90;;;;;;;21.30;66.07;101008.88;4972165;28;103938;-66
2022/07/13 03:44:12;;;;;;;1.83;1.23;;;;;;;21.31;66.02;101013.28;4979674;28;102363;-67
2022/07/13 03:46:40;;;;;;;1.67;1.10;;;;;;;21.30;66.23;101008.88;4979423;28;102265;-66
2022/07/13 03:49:06;;;;;;;1.90;1.20;;;;;;;21.31;66.52;101013.28;4980543;28;102109;-66
2022/07/13 03:51:33;;;;;;;1.67;1.55;;;;;;;21.30;66.85;101008.06;4977771;28;103931;-66
2022/07/13 03:54:00;;;;;;;2.20;1.98;;;;;;;21.28;67.35;101005.66;4988913;28;102251;-67
2022/07/13 03:56:26;;;;;;;1.48;1.38;;;;;;;21.29;67.51;101006.47;4998315;28;102175;-67
2022/07/13 03:58:55;;;;;;;1.48;1.23;;;;;;;21.27;67.86;100998.47;4979997;28;102824;-66
2022/07/13 04:01:21;;;;;;;1.50;1.08;;;;;;;21.29;68.09;100998.97;4978337;28;103981;-66
2022/07/13 04:03:49;;;;;;;8.18;1.48;;;;;;;21.29;67.95;101001.72;4969810;28;102378;-66
2022/07/13 04:06:16;;;;;;;0.80;0.80;;;;;;;21.29;68.19;101001.72;4970022;28;102298;-66
2022/07/13 04:08:43;;;;;;;1.20;1.10;;;;;;;21.31;68.24;100998.59;4972053;28;102156;-65
2022/07/13 04:11:11;;;;;;;1.02;0.88;;;;;;;21.30;68.33;101003.34;4985008;28;104418;-65
2022/07/13 04:13:38;;;;;;;0.80;0.80;;;;;;;21.32;68.29;101003.81;4968231;28;102111;-66
2022/07/13 04:16:06;;;;;;;1.50;1.00;;;;;;;21.32;68.46;101001.06;4976084;28;102336;-67
2022/07/13 04:18:35;;;;;;;1.25;1.10;;;;;;;21.33;68.46;101007.41;4980078;28;102203;-66
2022/07/13 04:21:02;;;;;;;0.85;0.80;;;;;;;21.34;68.59;101004.31;4982214;28;103868;-68
2022/07/13 04:23:30;;;;;;;1.30;0.98;;;;;;;21.34;68.60;101000.75;4978324;28;102332;-68
2022/07/13 04:25:57;;;;;;;1.38;0.77;;;;;;;21.35;68.57;100996.84;4969080;28;102318;-66
2022/07/13 04:28:24;;;;;;;1.20;1.10;;;;;;;21.37;68.54;100999.25;4969089;28;102184;-67
2022/07/13 04:30:51;;;;;;;1.35;1.00;;;;;;;21.36;68.63;101004.00;4977282;28;104103;-67
2022/07/13 04:33:18;;;;;;;1.10;0.90;;;;;;;21.38;68.71;100987.03;4979033;28;102206;-67
2022/07/13 04:35:46;;;;;;;1.37;1.00;;;;;;;21.37;68.69;100986.22;4978837;28;102437;-67
2022/07/13 04:38:12;;;;;;;0.98;0.80;;;;;;;21.38;68.67;100987.03;4980254;28;102195;-68
2022/07/13 04:40:39;;;;;;;1.50;1.23;;;;;;;21.38;68.84;100989.81;4974853;28;103851;-67
2022/07/13 04:43:05;;;;;;;1.10;1.00;;;;;;;21.39;68.64;100985.91;4972384;28;102314;-66
2022/07/13 04:45:32;;;;;;;1.10;1.00;;;;;;;21.38;68.78;100993.38;4965744;28;102306;-66
2022/07/13 04:47:59;;;;;;;1.42;1.05;;;;;;;21.39;68.78;100995.03;4969741;28;102560;-68
2022/07/13 04:50:27;;;;;;;1.45;1.00;;;;;;;21.41;68.84;101002.97;4971117;28;104185;-68
2022/07/13 04:52:53;;;;;;;1.03;0.93;;;;;;;21.40;68.86;100991.09;4977538;28;102673;-68
2022/07/13 04:55:20;;;;;;;1.17;1.08;;;;;;;21.42;68.74;100987.97;4988520;28;102288;-67
2022/07/13 04:57:48;;;;;;;1.20;1.10;;;;;;;21.41;68.82;100995.47;4973475;28;102770;-67
2022/07/13 05:00:16;;;;;;;3.45;1.27;;;;;;;21.43;68.87;100993.19;4971212;28;104098;-67
2022/07/13 05:02:42;;;;;;;1.40;1.30;;;;;;;21.44;68.74;100994.00;4971230;28;102392;-67
2022/07/13 05:05:09;;;;;;;1.00;0.93;;;;;;;21.46;68.74;100983.41;4971128;28;102098;-67
2022/07/13 05:07:37;;;;;;;1.40;1.13;;;;;;;21.46;68.85;100989.75;4977965;28;102159;-67
2022/07/13 05:10:05;;;;;;;3.08;1.38;;;;;;;21.49;68.83;100988.25;4986493;28;104474;-67
2022/07/13 05:12:32;;;;;;;3.08;1.63;;;;;;;21.50;68.83;100987.13;4976810;28;102443;-67
2022/07/13 05:15:00;;;;;;;1.95;1.40;;;;;;;21.52;68.65;100987.56;4974186;28;102581;-67
2022/07/13 05:17:26;;;;;;;2.22;1.50;;;;;;;21.52;68.61;100987.56;4978090;28;102715;-66
2022/07/13 05:19:53;;;;;;;1.77;1.45;;;;;;;21.54;68.71;100985.28;4961231;28;103719;-66
2022/07/13 05:22:19;;;;;;;2.30;1.40;;;;;;;21.56;68.71;100985.75;4962782;28;102291;-66
2022/07/13 05:24:47;;;;;;;2.50;1.30;;;;;;;21.58;68.69;100981.50;4975086;28;102175;-67
2022/07/13 05:27:14;;;;;;;1.90;1.40;;;;;;;21.58;68.59;100984.25;4970254;28;102011;-66
2022/07/13 05:29:40;;;;;;;3.22;1.60;;;;;;;21.62;68.66;100981.63;4976660;28;103883;-68
2022/07/13 05:32:07;;;;;;;2.65;1.15;;;;;;;21.63;68.49;100966.63;4976838;28;102055;-66
2022/07/13 05:34:34;;;;;;;1.48;1.38;;;;;;;21.66;68.55;100977.03;4971712;28;102623;-66
2022/07/13 05:37:00;;;;;;;1.52;1.33;;;;;;;21.69;68.44;100970.00;4977214;28;102551;-66
2022/07/13 05:39:28;;;;;;;3.38;1.35;;;;;;;21.71;68.35;100971.28;4977076;28;103916;-67
2022/07/13 05:41:56;;;;;;;1.50;1.30;;;;;;;21.73;68.36;100968.16;4976323;28;102295;-66
2022/07/13 05:44:22;;;;;;;1.48;1.38;;;;;;;21.77;68.04;100969.09;4974171;28;102607;-68
2022/07/13 05:46:49;;;;;;;1.50;1.40;;;;;;;21.79;67.84;100970.38;4973454;28;104557;-67
2022/07/13 05:49:16;;;;;;;2.85;1.45;;;;;;;21.80;67.96;100969.22;4972588;28;104238;-67
2022/07/13 05:51:42;;;;;;;6.18;1.55;;;;;;;21.91;67.08;100971.56;4973277;28;102538;-67
2022/07/13 05:54:09;;;;;;;12.32;2.03;;;;;;;21.91;64.69;100977.09;4970160;28;102290;-66
2022/07/13 05:56:37;;;;;;;10.82;1.40;;;;;;;21.84;66.88;100978.47;4972434;28;102304;-67
2022/07/13 05:59:05;;;;;;;4.72;1.50;;;;;;;21.88;62.67;100978.59;4971807;28;103974;-65
2022/07/13 06:01:31;;;;;;;3.20;1.67;;;;;;;21.87;65.90;100976.19;4972472;28;102775;-65
2022/07/13 06:03:58;;;;;;;2.80;1.60;;;;;;;21.88;67.02;100973.06;4977158;28;102034;-65
2022/07/13 06:06:24;;;;;;;4.68;1.45;;;;;;;21.91;66.40;100982.66;4972489;28;102557;-66
2022/07/13 06:08:51;;;;;;;6.43;1.30;;;;;;;21.93;66.99;100969.28;4977419;28;104142;-66
2022/07/13 06:11:18;;;;;;;9.27;1.80;;;;;;;21.93;67.38;100969.28;4977214;28;102294;-66
2022/07/13 06:13:44;;;;;;;8.25;1.40;;;;;;;21.94;67.24;100976.44;4976952;28;102316;-65
2022/07/13 06:16:13;;;;;;;5.18;1.25;;;;;;;21.95;67.41;100981.63;4978293;28;102285;-66
2022/07/13 06:18:39;;;;;;;3.93;1.27;;;;;;;21.96;67.12;100979.66;4976638;28;104071;-65
2022/07/13 06:21:06;;;;;;;5.35;1.60;;;;;;;21.97;67.51;100982.09;4977658;28;101898;-66
2022/07/13 06:23:32;;;;;;;1.88;1.45;;;;;;;21.98;67.21;100982.91;4973952;28;102192;-65
2022/07/13 06:25:59;;;;;;;2.17;1.75;;;;;;;22.00;66.77;100969.53;4973683;28;102605;-65
2022/07/13 06:28:26;;;;;;;3.83;1.70;;;;;;;22.01;66.70;100971.13;4960915;28;103888;-66
2022/07/13 06:30:52;;;;;;;1.90;1.35;;;;;;;22.02;66.46;100967.22;4968149;28;102418;-66
2022/07/13 06:33:20;;;;;;;4.85;1.80;;;;;;;22.02;66.85;100972.75;4977167;28;102005;-65
2022/07/13 06:35:47;;;;;;;1.50;1.40;;;;;;;22.05;65.90;100972.06;4976621;28;102148;-65
2022/07/13 06:38:15;;;;;;;4.25;1.48;;;;;;;22.05;65.96;100972.06;4977350;28;103981;-66
2022/07/13 06:40:41;;;;;;;2.40;1.50;;;;;;;22.05;66.18;100961.78;4980981;28;102289;-65
2022/07/13 06:43:08;;;;;;;1.80;1.25;;;;;;;22.07;66.27;100969.78;4981828;28;102038;-65
2022/07/13 06:45:35;;;;;;;3.50;1.60;;;;;;;22.08;66.15;100971.38;4959653;28;102061;-65
2022/07/13 06:48:01;;;;;;;4.00;1.40;;;;;;;22.08;65.87;100965.84;4968231;28;103983;-65
2022/07/13 06:50:30;;;;;;;3.17;1.30;;;;;;;22.09;66.17;100967.47;4978511;28;102576;-65
2022/07/13 06:52:57;;;;;;;2.33;1.50;;;;;;;22.10;66.04;100971.03;4977373;28;102627;-65
2022/07/13 06:55:23;;;;;;;3.75;1.42;;;;;;;22.11;66.22;100967.94;4973769;28;102905;-66
2022/07/13 06:57:51;;;;;;;3.15;1.27;;;;;;;22.13;65.80;100971.16;4963899;28;108004;-65
2022/07/13 07:00:17;;;;;;;2.28;1.45;;;;;;;22.13;65.84;100973.13;4961087;28;102245;-65
2022/07/13 07:02:44;;;;;;;4.32;1.23;;;;;;;22.14;65.90;100971.97;4977549;28;102379;-65
2022/07/13 07:05:10;;;;;;;2.05;1.25;;;;;;;22.15;65.95;100973.63;4976551;28;102216;-65
2022/07/13 07:07:41;;;;;;;3.15;1.40;;;;;;;22.14;66.08;100975.56;4957877;28;103968;-65
2022/07/13 07:10:09;;;;;;;2.47;1.15;;;;;;;22.15;65.96;100977.22;4989446;28;102113;-66
2022/07/13 07:12:39;;;;;;;2.08;1.25;;;;;;;22.16;65.82;100978.00;4961777;28;102174;-66
2022/07/13 07:15:07;;;;;;;3.15;1.38;;;;;;;22.18;65.74;100975.69;4963669;28;102199;-65
2022/07/13 07:17:33;;;;;;;1.10;1.00;;;;;;;22.16;65.97;100978.81;4957866;28;104104;-66
2022/07/13 07:20:01;;;;;;;1.83;1.30;;;;;;;22.17;65.76;100977.66;4958507;28;101870;-66
2022/07/13 07:22:28;;;;;;;1.38;1.17;;;;;;;22.18;65.86;100979.31;4971151;28;102015;-66
2022/07/13 07:24:56;;;;;;;2.30;1.10;;;;;;;22.17;65.85;100969.34;4977806;28;102323;-66
2022/07/13 07:27:23;;;;;;;1.60;1.50;;;;;;;22.18;65.84;100973.75;4976928;28;103937;-65
2022/07/13 07:29:49;;;;;;;2.05;1.20;;;;;;;22.18;66.43;100959.91;4977109;28;102585;-67
2022/07/13 07:32:16;;;;;;;2.58;1.10;;;;;;;22.19;65.97;100975.38;4974597;28;102189;-66
2022/07/13 07:34:42;;;;;;;1.90;1.27;;;;;;;22.21;65.23;100981.34;4974232;28;102726;-65
2022/07/13 07:37:09;;;;;;;1.20;1.10;;;;;;;22.21;65.94;100983.31;4960476;28;104071;-67
2022/07/13 07:39:36;;;;;;;1.98;1.25;;;;;;;22.20;66.00;100979.75;4958419;28;102093;-65
2022/07/13 07:42:04;;;;;;;1.60;1.20;;;;;;;22.21;66.05;100975.00;4975261;28;102113;-66
2022/07/13 07:44:31;;;;;;;2.67;1.05;;;;;;;22.22;65.78;100982.19;4976062;28;102164;-66
2022/07/13 07:46:58;;;;;;;1.40;1.02;;;;;;;22.22;65.95;100977.44;4959676;28;103924;-65
2022/07/13 07:49:26;;;;;;;1.20;1.00;;;;;;;22.21;65.91;100975.81;4971935;28;102185;-65
2022/07/13 07:51:52;;;;;;;1.73;1.20;;;;;;;22.21;65.85;100975.00;4966904;28;102106;-65
2022/07/13 07:54:19;;;;;;;1.30;1.10;;;;;;;22.22;65.97;100969.13;4978367;28;102170;-66
2022/07/13 07:56:45;;;;;;;1.70;1.00;;;;;;;22.21;65.96;100973.03;4957621;28;103938;-66
2022/07/13 07:59:14;;;;;;;2.75;0.95;;;;;;;22.22;66.23;100971.91;4970282;28;102330;-66
2022/07/13 08:01:41;;;;;;;1.63;1.25;;;;;;;22.21;65.90;100970.28;4968805;28;102011;-66
2022/07/13 08:04:09;;;;;;;3.50;1.30;;;;;;;22.21;66.37;100967.50;4978306;28;102116;-66
2022/07/13 08:06:38;;;;;;;1.30;1.13;;;;;;;22.22;66.15;100963.59;4973892;28;103963;-65
2022/07/13 08:09:05;;;;;;;2.10;1.33;;;;;;;22.21;65.97;100958.38;4987182;28;102057;-65
2022/07/13 08:11:32;;;;;;;3.20;1.27;;;;;;;22.22;66.07;100960.00;4985401;28;101969;-66
2022/07/13 08:13:58;;;;;;;1.70;1.10;;;;;;;22.23;65.90;100962.44;4976895;28;102102;-65
2022/07/13 08:16:27;;;;;;;2.85;1.13;;;;;;;22.22;66.38;100960.81;4975531;28;104065;-65
2022/07/13 08:18:53;;;;;;;1.58;1.20;;;;;;;22.23;66.28;100961.63;4979620;28;102265;-66
2022/07/13 08:21:20;;;;;;;2.08;1.33;;;;;;;22.23;66.04;100956.88;4982031;28;102101;-66
2022/07/13 08:23:52;;;;;;;2.17;1.35;;;;;;;22.23;66.01;100962.44;4973823;28;102259;-65
2022/07/13 08:26:20;;;;;;;1.63;1.10;;;;;;;22.23;65.87;100959.66;4959529;28;103927;-66
2022/07/13 08:28:47;;;;;;;2.28;1.35;;;;;;;22.23;66.45;100956.88;4960985;28;102100;-66
2022/07/13 08:31:14;;;;;;;1.85;1.00;;;;;;;22.22;66.01;100954.47;4963070;28;102126;-65
2022/07/13 08:39:13;;;;;;;1.63;1.38;;;;;;;22.21;66.97;100941.75;4975713;28;102065;-66
2022/07/13 08:41:40;;;;;;;1.02;1.00;;;;;;;22.21;66.26;100948.09;4979061;28;102066;-66
2022/07/13 08:44:06;;;;;;;2.45;1.10;;;;;;;22.22;66.53;100948.94;4970346;28;102154;-67
2022/07/13 08:46:33;;;;;;;1.30;1.00;;;;;;;22.20;66.76;100935.41;4990896;28;103932;-66
2022/07/13 08:49:02;;;;;;;2.50;1.50;;;;;;;22.20;66.83;100940.13;4976700;28;102065;-64
2022/07/13 08:51:29;;;;;;;;;;;;;;;22.19;66.89;100939.31;4985655;28;102075;-65
2022/07/13 08:53:56;;;;;;;1.20;1.10;;;;;;;22.20;67.01;100929.03;4992471;28;102318;-64
2022/07/13 08:56:23;;;;;;;3.80;0.90;;;;;;;22.19;67.22;100922.69;4979108;28;104152;-65
2022/07/13 08:58:49;;;;;;;1.17;1.00;;;;;;;22.20;66.84;100923.50;4979672;28;103706;-66
2022/07/13 09:01:17;;;;;;;1.08;0.98;;;;;;;22.21;66.56;100920.38;4978406;28;101977;-65
2022/07/13 09:03:43;;;;;;;1.25;1.15;;;;;;;22.20;67.25;100924.31;4980552;28;102799;-66
2022/07/13 09:06:41;;;;;;;2.20;1.00;;;;;;;22.19;67.38;100922.69;4984745;28;104154;-66
2022/07/13 09:09:23;;;;;;;1.02;0.98;;;;;;;22.18;67.32;100918.31;4985743;28;101916;-65
2022/07/13 09:11:50;;;;;;;1.58;0.90;;;;;;;22.17;67.36;100913.91;4971389;28;102529;-65
2022/07/13 09:14:23;;;;;;;1.90;1.10;;;;;;;22.18;67.11;100906.41;4980129;28;102121;-65
2022/07/13 09:16:52;;;;;;;1.38;1.10;;;;;;;22.16;67.81;100912.28;4973296;28;104086;-66
2022/07/13 09:19:25;;;;;;;2.45;1.10;;;;;;;22.16;67.80;100912.28;4976209;28;102406;-66
2022/07/13 09:22:07;;;;;;;1.40;1.30;;;;;;;22.16;67.76;100903.97;4970854;28;101957;-65
2022/07/13 09:24:42;;;;;;;4.13;1.00;;;;;;;22.17;67.72;100911.13;4998841;28;102183;-66
2022/07/13 09:27:08;;;;;;;1.20;0.82;;;;;;;22.16;67.33;100906.75;4978806;28;104066;-66
2022/07/13 09:29:36;;;;;;;1.15;1.08;;;;;;;22.17;67.74;100899.25;4979576;28;102531;-65
2022/07/13 09:32:07;;;;;;;1.10;0.73;;;;;;;22.16;67.83;100905.94;4979093;28;102169;-66
2022/07/13 09:34:46;;;;;;;2.53;0.70;;;;;;;22.14;67.92;100903.50;4972638;28;102177;-65
2022/07/13 09:37:15;;;;;;;1.02;0.98;;;;;;;22.15;67.74;100899.59;4971225;28;103828;-65
2022/07/13 09:40:00;;;;;;;1.95;1.45;;;;;;;22.13;67.85;100901.88;4979084;28;101971;-65
2022/07/13 09:42:29;;;;;;;3.90;1.77;;;;;;;22.13;67.95;100889.97;4978437;28;102171;-65
2022/07/13 09:47:46;;;;;;;6.07;1.20;;;;;;;22.12;68.02;100878.09;4978808;28;103685;-67
2022/07/13 09:50:13;;;;;;;0.93;0.82;;;;;;;22.12;67.96;100883.63;4977398;28;102475;-65
2022/07/13 09:52:41;;;;;;;1.08;0.88;;;;;;;22.11;68.24;100886.72;4959170;28;102214;-65
2022/07/13 09:55:10;;;;;;;;;;;;;;;22.10;68.37;100885.13;4992585;28;101956;-66
2022/07/13 09:57:39;;;;;;;;;;;;;;;22.08;68.10;100888.25;4959336;28;104216;-66
2022/07/13 10:00:10;;;;;;;0.98;0.90;;;;;;;22.08;68.33;100877.16;4961148;28;102543;-66
2022/07/13 10:02:38;;;;;;;1.00;0.80;;;;;;;22.07;68.29;100879.13;4964447;28;102101;-65
2022/07/13 10:05:06;;;;;;;0.83;0.83;;;;;;;22.06;68.26;100873.91;4979576;28;102388;-67
2022/07/13 10:07:35;;;;;;;2.47;0.88;;;;;;;22.05;68.34;100875.88;4958914;28;104013;-66
2022/07/13 10:10:06;;;;;;;2.58;0.70;;;;;;;22.05;68.41;100877.84;4984462;28;102107;-66
2022/07/13 10:12:36;;;;;;;1.10;1.00;;;;;;;22.05;68.27;100875.06;4971580;28;102474;-65
2022/07/13 10:15:03;;;;;;;0.80;0.77;;;;;;;22.03;68.48;100869.88;4973073;28;102590;-66
2022/07/13 10:17:30;;;;;;;1.63;0.90;;;;;;;22.03;68.31;100866.28;4969651;28;104082;-65
2022/07/13 10:20:05;;;;;;;0.77;0.77;;;;;;;22.03;68.37;100869.88;4976627;28;102314;-66
2022/07/13 10:22:37;;;;;;;0.82;0.82;;;;;;;22.02;68.51;100861.91;4972875;28;102878;-66
2022/07/13 10:25:06;;;;;;;1.02;1.02;;;;;;;22.01;68.59;100863.88;4977166;28;102884;-66
2022/07/13 10:27:36;;;;;;;0.80;0.80;;;;;;;22.01;68.43;100860.28;4977604;28;103735;-64
2022/07/13 10:30:05;;;;;;;0.63;0.63;;;;;;;22.01;68.38;100865.84;4973457;28;103540;-66
2022/07/13 10:32:34;;;;;;;1.48;0.90;;;;;;;22.00;68.52;100847.59;4972161;28;101893;-67
2022/07/13 10:35:03;;;;;;;1.02;0.93;;;;;;;22.00;68.63;100858.69;4979098;28;102332;-66
2022/07/13 10:38:04;;;;;;;1.10;0.90;;;;;;;22.00;68.50;100855.91;4976255;28;103993;-66
2022/07/13 10:40:33;;;;;;;0.80;0.80;;;;;;;21.98;68.66;100855.44;4948873;28;102026;-67
2022/07/13 10:43:17;;;;;;;1.10;1.00;;;;;;;21.98;68.67;100849.91;4977569;28;102466;-65
2022/07/13 10:45:49;;;;;;;0.80;0.80;;;;;;;21.98;68.58;100849.91;4959429;28;102496;-67
2022/07/13 10:48:44;;;;;;;0.90;0.80;;;;;;;21.97;68.61;100860.16;4974099;28;103934;-66
2022/07/13 10:51:19;;;;;;;1.05;0.90;;;;;;;21.96;68.83;100847.47;4977430;28;102081;-65
2022/07/13 10:54:05;;;;;;;1.65;0.80;;;;;;;21.96;68.80;100852.19;4975018;28;102097;-67
2022/07/13 10:56:33;;;;;;;0.80;0.80;;;;;;;21.94;68.67;100843.44;4966806;28;103444;-66
2022/07/13 10:59:01;;;;;;;1.30;0.70;;;;;;;21.95;68.31;100845.03;4974273;28;103860;-65
2022/07/13 11:01:49;;;;;;;0.90;0.90;;;;;;;21.94;68.68;100832.34;4969787;28;102168;-67
2022/07/13 11:04:17;;;;;;;;;;;;;;;21.93;68.58;100836.28;4969783;28;102034;-65
2022/07/13 11:07:05;;;;;;;1.67;0.70;;;;;;;21.93;68.68;100844.59;4972699;28;102169;-65
2022/07/13 11:09:33;;;;;;;1.00;0.70;;;;;;;21.93;68.83;100837.09;4982335;28;107945;-66
2022/07/13 11:12:21;;;;;;;0.85;0.85;;;;;;;21.93;68.68;100836.28;4977727;28;102312;-65
2022/07/13 11:14:49;;;;;;;0.75;0.75;;;;;;;21.91;68.80;100830.25;4967639;28;102195;-65
2022/07/13 11:17:17;;;;;;;2.20;0.70;;;;;;;21.91;68.78;100833.03;4960613;28;102301;-65
2022/07/13 11:19:50;;;;;;;;;;;;;;;21.91;68.88;100828.28;4972404;28;103911;-66
2022/07/13 11:22:17;;;;;;;1.00;0.68;;;;;;;21.92;68.68;100831.88;4967029;28;102110;-66
2022/07/13 11:27:44;;;;;;;0.70;0.70;;;;;;;21.91;68.90;100838.56;4958840;28;102258;-66
2022/07/13 11:30:14;;;;;;;0.93;0.85;;;;;;;21.91;68.80;100821.94;4968075;28;104119;-65
2022/07/13 11:32:42;;;;;;;1.52;0.75;;;;;;;21.90;68.79;100831.44;4963816;28;102291;-66
2022/07/13 11:35:08;;;;;;;1.00;0.80;;;;;;;21.90;68.80;100814.81;4976105;28;102180;-65